Burt, Michigan
Current Conditions -  °F | °C
As of 9:34 AM on Thursday 30 Oct 2014 (Local Time) from KHYX Reporting Station
Overcast Overcast  
Wind Chill: 34°   Ceiling: 4000
Heat Index: 37°   Visibility: 10mi
Dew Point: 37°   Wind: 5mph
Humidity: 100%   Direction: 190°S
Pressure: 30.12"   Gusts: NA
Location:  43.24°N, 83.91°W
Report Text: KHYX 301334Z AUTO 19004KT 10SM OVC040 03/03 A3012 RMK AO2
Loading
Personal Weather Stations






























Interactive Weather Map
Tropical Storm Tracking
New forecast layout! Learn more

10-Day Weather Forecast

Advertisements
Track Severe Weather on mobile